Terminal Aerodrome Forecast
Issued by NWS

Home | Current Version | Previous Version | Text Only | Print | Product List | Glossary On
Versions: 1 2 3 4 5 6 7 8 9 10 11 12
000
FTUS46 KLOX 251141
TAFWJF
TAF
KWJF 251141Z 2512/2612 25010KT P6SM SKC
     FM251800 24015G22KT P6SM SKC
     FM252100 24020G30KT P6SM SKC
     FM260300 24015G22KT P6SM SKC
     FM260900 23008KT P6SM SKC=

USA.gov is the U.S. government's official web portal to all federal, state and local government web resources and services.